sensor_id;sensor_type;location;lat;lon;timestamp;P1;durP1;ratioP1;P2;durP2;ratioP2
30157;SDS011;21203;-33.912;151.178;2023-04-06T00:01:24;5.78;;;2.10;;
30157;SDS011;21203;-33.912;151.178;2023-04-06T00:03:54;7.92;;;3.00;;
30157;SDS011;21203;-33.912;151.178;2023-04-06T00:06:25;6.28;;;2.05;;
30157;SDS011;21203;-33.912;151.178;2023-04-06T00:08:56;6.47;;;2.10;;
30157;SDS011;21203;-33.912;151.178;2023-04-06T00:11:26;6.80;;;2.35;;
30157;SDS011;21203;-33.912;151.178;2023-04-06T00:13:57;11.68;;;3.50;;
30157;SDS011;21203;-33.912;151.178;2023-04-06T00:16:47;13.25;;;6.42;;
30157;SDS011;21203;-33.912;151.178;2023-04-06T00:19:17;10.75;;;3.75;;
30157;SDS011;21203;-33.912;151.178;2023-04-06T00:21:48;8.78;;;3.33;;
30157;SDS011;21203;-33.912;151.178;2023-04-06T00:24:18;9.25;;;2.92;;
30157;SDS011;21203;-33.912;151.178;2023-04-06T00:26:49;5.70;;;2.60;;
30157;SDS011;21203;-33.912;151.178;2023-04-06T00:29:19;6.35;;;2.47;;
30157;SDS011;21203;-33.912;151.178;2023-04-06T00:31:49;7.92;;;2.17;;
30157;SDS011;21203;-33.912;151.178;2023-04-06T00:34:20;6.40;;;2.42;;
30157;SDS011;21203;-33.912;151.178;2023-04-06T00:36:50;4.12;;;2.17;;
30157;SDS011;21203;-33.912;151.178;2023-04-06T00:39:20;7.95;;;2.47;;
30157;SDS011;21203;-33.912;151.178;2023-04-06T00:41:51;12.73;;;2.90;;
30157;SDS011;21203;-33.912;151.178;2023-04-06T00:44:23;7.95;;;3.17;;
30157;SDS011;21203;-33.912;151.178;2023-04-06T00:46:53;6.65;;;2.55;;
30157;SDS011;21203;-33.912;151.178;2023-04-06T00:49:23;9.78;;;2.15;;
30157;SDS011;21203;-33.912;151.178;2023-04-06T00:51:54;6.78;;;2.40;;
30157;SDS011;21203;-33.912;151.178;2023-04-06T00:54:25;7.33;;;2.42;;
30157;SDS011;21203;-33.912;151.178;2023-04-06T00:56:55;5.72;;;2.30;;
30157;SDS011;21203;-33.912;151.178;2023-04-06T00:59:27;5.67;;;2.52;;
30157;SDS011;21203;-33.912;151.178;2023-04-06T01:01:57;3.83;;;1.80;;
30157;SDS011;21203;-33.912;151.178;2023-04-06T01:04:27;8.18;;;2.33;;
30157;SDS011;21203;-33.912;151.178;2023-04-06T01:06:58;4.80;;;2.05;;
30157;SDS011;21203;-33.912;151.178;2023-04-06T01:09:28;8.78;;;2.45;;
30157;SDS011;21203;-33.912;151.178;2023-04-06T01:11:59;6.05;;;2.20;;
30157;SDS011;21203;-33.912;151.178;2023-04-06T01:14:30;7.17;;;2.40;;
30157;SDS011;21203;-33.912;151.178;2023-04-06T01:17:00;5.35;;;2.33;;
30157;SDS011;21203;-33.912;151.178;2023-04-06T01:19:31;7.55;;;2.83;;
30157;SDS011;21203;-33.912;151.178;2023-04-06T01:22:02;7.35;;;2.52;;
30157;SDS011;21203;-33.912;151.178;2023-04-06T01:24:32;6.00;;;2.40;;
30157;SDS011;21203;-33.912;151.178;2023-04-06T01:27:03;6.37;;;2.22;;
30157;SDS011;21203;-33.912;151.178;2023-04-06T01:29:33;4.12;;;1.95;;
30157;SDS011;21203;-33.912;151.178;2023-04-06T01:32:04;7.42;;;2.12;;
30157;SDS011;21203;-33.912;151.178;2023-04-06T01:34:35;6.33;;;2.10;;
30157;SDS011;21203;-33.912;151.178;2023-04-06T01:37:05;3.75;;;1.90;;
30157;SDS011;21203;-33.912;151.178;2023-04-06T01:39:36;4.45;;;2.10;;
30157;SDS011;21203;-33.912;151.178;2023-04-06T01:42:06;5.25;;;2.08;;
30157;SDS011;21203;-33.912;151.178;2023-04-06T01:44:36;4.87;;;2.05;;
30157;SDS011;21203;-33.912;151.178;2023-04-06T01:47:07;6.85;;;2.58;;
30157;SDS011;21203;-33.912;151.178;2023-04-06T01:49:37;8.85;;;2.30;;
30157;SDS011;21203;-33.912;151.178;2023-04-06T01:52:08;5.35;;;1.90;;
30157;SDS011;21203;-33.912;151.178;2023-04-06T01:54:38;4.78;;;1.60;;
30157;SDS011;21203;-33.912;151.178;2023-04-06T01:57:09;6.22;;;1.95;;
30157;SDS011;21203;-33.912;151.178;2023-04-06T01:59:39;6.10;;;2.47;;
30157;SDS011;21203;-33.912;151.178;2023-04-06T02:02:10;5.22;;;1.70;;
30157;SDS011;21203;-33.912;151.178;2023-04-06T02:04:40;4.95;;;1.57;;
30157;SDS011;21203;-33.912;151.178;2023-04-06T02:07:10;6.37;;;1.67;;
30157;SDS011;21203;-33.912;151.178;2023-04-06T02:09:41;6.53;;;1.57;;
30157;SDS011;21203;-33.912;151.178;2023-04-06T02:12:12;5.45;;;1.90;;
30157;SDS011;21203;-33.912;151.178;2023-04-06T02:14:43;4.87;;;1.57;;
30157;SDS011;21203;-33.912;151.178;2023-04-06T02:17:13;5.00;;;1.47;;
30157;SDS011;21203;-33.912;151.178;2023-04-06T02:19:43;4.08;;;1.40;;
30157;SDS011;21203;-33.912;151.178;2023-04-06T02:22:14;4.35;;;1.57;;
30157;SDS011;21203;-33.912;151.178;2023-04-06T02:24:44;3.47;;;1.40;;
30157;SDS011;21203;-33.912;151.178;2023-04-06T02:27:15;9.65;;;1.80;;
30157;SDS011;21203;-33.912;151.178;2023-04-06T02:29:51;2.98;;;1.55;;
30157;SDS011;21203;-33.912;151.178;2023-04-06T02:32:21;4.97;;;1.55;;
30157;SDS011;21203;-33.912;151.178;2023-04-06T02:34:51;6.12;;;1.80;;
30157;SDS011;21203;-33.912;151.178;2023-04-06T02:37:22;6.50;;;2.00;;
30157;SDS011;21203;-33.912;151.178;2023-04-06T02:39:52;7.78;;;2.02;;
30157;SDS011;21203;-33.912;151.178;2023-04-06T02:42:23;7.45;;;1.98;;
30157;SDS011;21203;-33.912;151.178;2023-04-06T02:44:53;3.17;;;1.60;;
30157;SDS011;21203;-33.912;151.178;2023-04-06T02:47:24;4.85;;;1.90;;
30157;SDS011;21203;-33.912;151.178;2023-04-06T02:49:54;4.80;;;1.70;;
30157;SDS011;21203;-33.912;151.178;2023-04-06T02:52:25;4.17;;;1.40;;
30157;SDS011;21203;-33.912;151.178;2023-04-06T02:54:55;3.58;;;1.57;;
30157;SDS011;21203;-33.912;151.178;2023-04-06T02:57:25;3.65;;;1.60;;
30157;SDS011;21203;-33.912;151.178;2023-04-06T02:59:56;4.22;;;1.50;;
30157;SDS011;21203;-33.912;151.178;2023-04-06T03:02:26;5.42;;;1.62;;
30157;SDS011;21203;-33.912;151.178;2023-04-06T03:04:57;7.53;;;1.80;;
30157;SDS011;21203;-33.912;151.178;2023-04-06T03:07:27;2.90;;;1.20;;
30157;SDS011;21203;-33.912;151.178;2023-04-06T03:09:58;4.08;;;1.50;;
30157;SDS011;21203;-33.912;151.178;2023-04-06T03:12:29;6.22;;;1.40;;
30157;SDS011;21203;-33.912;151.178;2023-04-06T03:14:59;5.45;;;1.57;;
30157;SDS011;21203;-33.912;151.178;2023-04-06T03:17:30;5.58;;;1.77;;
30157;SDS011;21203;-33.912;151.178;2023-04-06T03:20:01;4.80;;;1.50;;
30157;SDS011;21203;-33.912;151.178;2023-04-06T03:22:32;2.52;;;1.20;;
30157;SDS011;21203;-33.912;151.178;2023-04-06T03:25:02;5.42;;;1.95;;
30157;SDS011;21203;-33.912;151.178;2023-04-06T03:27:33;3.35;;;1.30;;
30157;SDS011;21203;-33.912;151.178;2023-04-06T03:30:04;3.12;;;1.30;;
30157;SDS011;21203;-33.912;151.178;2023-04-06T03:32:35;5.67;;;1.40;;
30157;SDS011;21203;-33.912;151.178;2023-04-06T03:35:05;3.35;;;1.45;;
30157;SDS011;21203;-33.912;151.178;2023-04-06T03:37:36;4.25;;;1.72;;
30157;SDS011;21203;-33.912;151.178;2023-04-06T03:40:07;6.72;;;2.33;;
30157;SDS011;21203;-33.912;151.178;2023-04-06T03:42:37;7.90;;;3.37;;
30157;SDS011;21203;-33.912;151.178;2023-04-06T03:45:08;8.63;;;3.55;;
30157;SDS011;21203;-33.912;151.178;2023-04-06T03:47:39;4.12;;;2.50;;
30157;SDS011;21203;-33.912;151.178;2023-04-06T03:50:10;5.53;;;2.77;;
30157;SDS011;21203;-33.912;151.178;2023-04-06T03:52:41;5.22;;;2.10;;
30157;SDS011;21203;-33.912;151.178;2023-04-06T03:55:11;7.12;;;2.15;;
30157;SDS011;21203;-33.912;151.178;2023-04-06T03:57:42;6.22;;;2.33;;
30157;SDS011;21203;-33.912;151.178;2023-04-06T04:00:13;4.10;;;1.80;;
30157;SDS011;21203;-33.912;151.178;2023-04-06T04:02:43;6.78;;;1.82;;
30157;SDS011;21203;-33.912;151.178;2023-04-06T04:05:13;4.37;;;2.00;;
30157;SDS011;21203;-33.912;151.178;2023-04-06T04:07:44;7.97;;;2.50;;
30157;SDS011;21203;-33.912;151.178;2023-04-06T04:10:15;8.20;;;2.47;;
30157;SDS011;21203;-33.912;151.178;2023-04-06T04:12:45;3.60;;;2.17;;
30157;SDS011;21203;-33.912;151.178;2023-04-06T04:15:16;5.78;;;2.20;;
30157;SDS011;21203;-33.912;151.178;2023-04-06T04:17:46;6.62;;;2.05;;
30157;SDS011;21203;-33.912;151.178;2023-04-06T04:20:17;6.10;;;2.33;;
30157;SDS011;21203;-33.912;151.178;2023-04-06T04:22:48;6.30;;;2.05;;
30157;SDS011;21203;-33.912;151.178;2023-04-06T04:25:18;6.50;;;1.75;;
30157;SDS011;21203;-33.912;151.178;2023-04-06T04:27:49;7.37;;;2.70;;
30157;SDS011;21203;-33.912;151.178;2023-04-06T04:30:19;5.97;;;2.40;;
30157;SDS011;21203;-33.912;151.178;2023-04-06T04:32:50;9.18;;;3.15;;
30157;SDS011;21203;-33.912;151.178;2023-04-06T04:35:20;11.40;;;4.25;;
30157;SDS011;21203;-33.912;151.178;2023-04-06T04:37:51;9.33;;;4.83;;
30157;SDS011;21203;-33.912;151.178;2023-04-06T04:40:23;10.85;;;3.72;;
30157;SDS011;21203;-33.912;151.178;2023-04-06T04:42:54;5.58;;;2.55;;
30157;SDS011;21203;-33.912;151.178;2023-04-06T04:45:24;9.53;;;2.55;;
30157;SDS011;21203;-33.912;151.178;2023-04-06T04:47:55;7.58;;;2.67;;
30157;SDS011;21203;-33.912;151.178;2023-04-06T04:50:26;6.50;;;2.33;;
30157;SDS011;21203;-33.912;151.178;2023-04-06T04:52:56;4.97;;;1.62;;
30157;SDS011;21203;-33.912;151.178;2023-04-06T04:55:26;5.95;;;2.33;;
30157;SDS011;21203;-33.912;151.178;2023-04-06T04:57:57;5.95;;;1.67;;
30157;SDS011;21203;-33.912;151.178;2023-04-06T05:00:29;2.05;;;1.32;;
30157;SDS011;21203;-33.912;151.178;2023-04-06T05:02:59;3.55;;;1.67;;
30157;SDS011;21203;-33.912;151.178;2023-04-06T05:05:30;6.60;;;1.77;;
30157;SDS011;21203;-33.912;151.178;2023-04-06T05:08:00;4.20;;;1.55;;
30157;SDS011;21203;-33.912;151.178;2023-04-06T05:10:31;3.55;;;1.25;;
30157;SDS011;21203;-33.912;151.178;2023-04-06T05:13:02;4.67;;;1.65;;
30157;SDS011;21203;-33.912;151.178;2023-04-06T05:15:33;2.70;;;1.40;;
30157;SDS011;21203;-33.912;151.178;2023-04-06T05:18:04;2.52;;;1.00;;
30157;SDS011;21203;-33.912;151.178;2023-04-06T05:20:35;2.40;;;1.30;;
30157;SDS011;21203;-33.912;151.178;2023-04-06T05:23:06;4.65;;;1.00;;
30157;SDS011;21203;-33.912;151.178;2023-04-06T05:25:37;3.10;;;1.10;;
30157;SDS011;21203;-33.912;151.178;2023-04-06T05:28:07;4.62;;;1.10;;
30157;SDS011;21203;-33.912;151.178;2023-04-06T05:30:39;2.42;;;1.27;;
30157;SDS011;21203;-33.912;151.178;2023-04-06T05:33:10;3.90;;;1.60;;
30157;SDS011;21203;-33.912;151.178;2023-04-06T05:35:43;5.70;;;1.17;;
30157;SDS011;21203;-33.912;151.178;2023-04-06T05:38:14;6.95;;;1.50;;
30157;SDS011;21203;-33.912;151.178;2023-04-06T05:40:45;5.55;;;1.70;;
30157;SDS011;21203;-33.912;151.178;2023-04-06T05:43:15;3.08;;;1.35;;
30157;SDS011;21203;-33.912;151.178;2023-04-06T05:45:46;3.67;;;1.57;;
30157;SDS011;21203;-33.912;151.178;2023-04-06T05:48:16;3.80;;;1.40;;
30157;SDS011;21203;-33.912;151.178;2023-04-06T05:50:50;3.70;;;1.30;;
30157;SDS011;21203;-33.912;151.178;2023-04-06T05:53:20;3.12;;;1.22;;
30157;SDS011;21203;-33.912;151.178;2023-04-06T05:55:51;4.62;;;1.27;;
30157;SDS011;21203;-33.912;151.178;2023-04-06T05:58:22;7.60;;;1.30;;
30157;SDS011;21203;-33.912;151.178;2023-04-06T06:01:02;2.58;;;1.05;;
30157;SDS011;21203;-33.912;151.178;2023-04-06T06:06:02;2.40;;;1.07;;
30157;SDS011;21203;-33.912;151.178;2023-04-06T06:08:33;4.10;;;1.37;;
30157;SDS011;21203;-33.912;151.178;2023-04-06T06:11:03;3.92;;;1.47;;
30157;SDS011;21203;-33.912;151.178;2023-04-06T06:13:33;5.75;;;1.30;;
30157;SDS011;21203;-33.912;151.178;2023-04-06T06:16:04;4.50;;;1.22;;
30157;SDS011;21203;-33.912;151.178;2023-04-06T06:18:35;4.05;;;1.30;;
30157;SDS011;21203;-33.912;151.178;2023-04-06T06:21:05;3.42;;;1.27;;
30157;SDS011;21203;-33.912;151.178;2023-04-06T06:23:36;5.72;;;1.10;;
30157;SDS011;21203;-33.912;151.178;2023-04-06T06:26:07;4.60;;;1.77;;
30157;SDS011;21203;-33.912;151.178;2023-04-06T06:28:37;6.95;;;1.47;;
30157;SDS011;21203;-33.912;151.178;2023-04-06T06:31:08;5.05;;;1.75;;
30157;SDS011;21203;-33.912;151.178;2023-04-06T06:33:38;2.83;;;1.62;;
30157;SDS011;21203;-33.912;151.178;2023-04-06T06:36:09;5.55;;;1.72;;
30157;SDS011;21203;-33.912;151.178;2023-04-06T06:38:39;6.85;;;1.92;;
30157;SDS011;21203;-33.912;151.178;2023-04-06T06:41:09;3.95;;;1.47;;
30157;SDS011;21203;-33.912;151.178;2023-04-06T06:43:40;4.28;;;1.65;;
30157;SDS011;21203;-33.912;151.178;2023-04-06T06:46:10;6.70;;;1.50;;
30157;SDS011;21203;-33.912;151.178;2023-04-06T06:48:41;7.25;;;1.50;;
30157;SDS011;21203;-33.912;151.178;2023-04-06T06:51:11;6.80;;;1.82;;
30157;SDS011;21203;-33.912;151.178;2023-04-06T06:53:42;6.67;;;1.70;;
30157;SDS011;21203;-33.912;151.178;2023-04-06T06:56:12;6.35;;;2.30;;
30157;SDS011;21203;-33.912;151.178;2023-04-06T06:58:42;5.70;;;1.70;;
30157;SDS011;21203;-33.912;151.178;2023-04-06T07:01:13;3.35;;;1.60;;
30157;SDS011;21203;-33.912;151.178;2023-04-06T07:03:43;5.33;;;2.00;;
30157;SDS011;21203;-33.912;151.178;2023-04-06T07:06:13;4.62;;;1.52;;
30157;SDS011;21203;-33.912;151.178;2023-04-06T07:08:44;3.98;;;1.37;;
30157;SDS011;21203;-33.912;151.178;2023-04-06T07:11:14;6.25;;;1.92;;
30157;SDS011;21203;-33.912;151.178;2023-04-06T07:13:44;7.65;;;2.35;;
30157;SDS011;21203;-33.912;151.178;2023-04-06T07:16:15;5.20;;;1.60;;
30157;SDS011;21203;-33.912;151.178;2023-04-06T07:18:45;5.45;;;1.47;;
30157;SDS011;21203;-33.912;151.178;2023-04-06T07:21:15;5.78;;;1.67;;
30157;SDS011;21203;-33.912;151.178;2023-04-06T07:23:45;5.30;;;1.65;;
30157;SDS011;21203;-33.912;151.178;2023-04-06T07:26:17;4.42;;;1.27;;
30157;SDS011;21203;-33.912;151.178;2023-04-06T07:28:48;7.12;;;2.70;;
30157;SDS011;21203;-33.912;151.178;2023-04-06T07:31:18;5.42;;;1.98;;
30157;SDS011;21203;-33.912;151.178;2023-04-06T07:33:48;4.67;;;1.67;;
30157;SDS011;21203;-33.912;151.178;2023-04-06T07:36:18;4.90;;;1.95;;
30157;SDS011;21203;-33.912;151.178;2023-04-06T07:38:48;6.60;;;1.98;;
30157;SDS011;21203;-33.912;151.178;2023-04-06T07:41:18;7.72;;;2.42;;
30157;SDS011;21203;-33.912;151.178;2023-04-06T07:43:48;3.83;;;2.05;;
30157;SDS011;21203;-33.912;151.178;2023-04-06T07:46:18;3.62;;;2.00;;
30157;SDS011;21203;-33.912;151.178;2023-04-06T07:48:48;7.17;;;1.90;;
30157;SDS011;21203;-33.912;151.178;2023-04-06T07:51:19;6.30;;;2.50;;
30157;SDS011;21203;-33.912;151.178;2023-04-06T07:53:50;5.33;;;2.02;;
30157;SDS011;21203;-33.912;151.178;2023-04-06T07:56:20;7.92;;;2.30;;
30157;SDS011;21203;-33.912;151.178;2023-04-06T07:58:51;5.08;;;2.00;;
30157;SDS011;21203;-33.912;151.178;2023-04-06T08:01:25;10.72;;;2.50;;
30157;SDS011;21203;-33.912;151.178;2023-04-06T08:03:56;11.50;;;2.60;;
30157;SDS011;21203;-33.912;151.178;2023-04-06T08:06:31;6.62;;;2.10;;
30157;SDS011;21203;-33.912;151.178;2023-04-06T08:08:58;6.78;;;3.47;;
30157;SDS011;21203;-33.912;151.178;2023-04-06T08:11:29;9.20;;;4.62;;
30157;SDS011;21203;-33.912;151.178;2023-04-06T08:13:59;11.15;;;5.65;;
30157;SDS011;21203;-33.912;151.178;2023-04-06T08:16:30;18.07;;;7.08;;
30157;SDS011;21203;-33.912;151.178;2023-04-06T08:19:00;15.78;;;6.28;;
30157;SDS011;21203;-33.912;151.178;2023-04-06T08:21:31;12.90;;;5.17;;
30157;SDS011;21203;-33.912;151.178;2023-04-06T08:24:02;12.30;;;4.58;;
30157;SDS011;21203;-33.912;151.178;2023-04-06T08:26:33;12.23;;;4.10;;
30157;SDS011;21203;-33.912;151.178;2023-04-06T08:29:03;11.05;;;4.90;;
30157;SDS011;21203;-33.912;151.178;2023-04-06T08:31:38;7.47;;;3.65;;
30157;SDS011;21203;-33.912;151.178;2023-04-06T08:34:09;8.15;;;3.72;;
30157;SDS011;21203;-33.912;151.178;2023-04-06T08:36:39;12.15;;;4.37;;
30157;SDS011;21203;-33.912;151.178;2023-04-06T08:39:10;6.12;;;3.50;;
30157;SDS011;21203;-33.912;151.178;2023-04-06T08:41:45;10.70;;;4.15;;
30157;SDS011;21203;-33.912;151.178;2023-04-06T08:44:12;11.68;;;4.03;;
30157;SDS011;21203;-33.912;151.178;2023-04-06T08:46:43;7.62;;;3.87;;
30157;SDS011;21203;-33.912;151.178;2023-04-06T08:49:13;10.88;;;3.92;;
30157;SDS011;21203;-33.912;151.178;2023-04-06T08:51:44;8.48;;;3.83;;
30157;SDS011;21203;-33.912;151.178;2023-04-06T08:54:15;8.85;;;3.85;;
30157;SDS011;21203;-33.912;151.178;2023-04-06T08:56:45;8.53;;;3.98;;
30157;SDS011;21203;-33.912;151.178;2023-04-06T08:59:16;9.48;;;3.87;;
30157;SDS011;21203;-33.912;151.178;2023-04-06T09:01:47;9.65;;;4.17;;
30157;SDS011;21203;-33.912;151.178;2023-04-06T09:04:17;8.05;;;3.70;;
30157;SDS011;21203;-33.912;151.178;2023-04-06T09:06:48;7.62;;;4.05;;
30157;SDS011;21203;-33.912;151.178;2023-04-06T09:09:19;11.08;;;4.30;;
30157;SDS011;21203;-33.912;151.178;2023-04-06T09:11:50;9.83;;;4.33;;
30157;SDS011;21203;-33.912;151.178;2023-04-06T09:14:35;8.50;;;4.45;;
30157;SDS011;21203;-33.912;151.178;2023-04-06T09:17:07;9.85;;;3.70;;
30157;SDS011;21203;-33.912;151.178;2023-04-06T09:19:48;8.48;;;4.20;;
30157;SDS011;21203;-33.912;151.178;2023-04-06T09:22:18;9.28;;;4.12;;
30157;SDS011;21203;-33.912;151.178;2023-04-06T09:24:49;7.92;;;3.85;;
30157;SDS011;21203;-33.912;151.178;2023-04-06T09:27:30;8.40;;;4.30;;
30157;SDS011;21203;-33.912;151.178;2023-04-06T09:30:05;11.50;;;4.37;;
30157;SDS011;21203;-33.912;151.178;2023-04-06T09:32:47;9.88;;;4.65;;
30157;SDS011;21203;-33.912;151.178;2023-04-06T09:35:18;13.32;;;5.03;;
30157;SDS011;21203;-33.912;151.178;2023-04-06T09:37:49;7.30;;;4.37;;
30157;SDS011;21203;-33.912;151.178;2023-04-06T09:40:20;11.65;;;5.22;;
30157;SDS011;21203;-33.912;151.178;2023-04-06T09:42:51;10.82;;;4.95;;
30157;SDS011;21203;-33.912;151.178;2023-04-06T09:45:22;13.00;;;4.72;;
30157;SDS011;21203;-33.912;151.178;2023-04-06T09:47:54;14.95;;;4.97;;
30157;SDS011;21203;-33.912;151.178;2023-04-06T09:50:25;10.45;;;4.00;;
30157;SDS011;21203;-33.912;151.178;2023-04-06T09:52:56;12.28;;;4.67;;
30157;SDS011;21203;-33.912;151.178;2023-04-06T09:55:31;9.15;;;4.05;;
30157;SDS011;21203;-33.912;151.178;2023-04-06T09:58:05;11.63;;;4.35;;
30157;SDS011;21203;-33.912;151.178;2023-04-06T10:00:40;9.00;;;3.75;;
30157;SDS011;21203;-33.912;151.178;2023-04-06T10:03:28;8.88;;;3.80;;
30157;SDS011;21203;-33.912;151.178;2023-04-06T10:05:55;9.38;;;4.12;;
30157;SDS011;21203;-33.912;151.178;2023-04-06T10:08:27;7.53;;;3.83;;
30157;SDS011;21203;-33.912;151.178;2023-04-06T10:10:59;13.55;;;6.92;;
30157;SDS011;21203;-33.912;151.178;2023-04-06T10:13:30;17.20;;;7.50;;
30157;SDS011;21203;-33.912;151.178;2023-04-06T10:16:00;15.13;;;7.40;;
30157;SDS011;21203;-33.912;151.178;2023-04-06T10:18:32;15.48;;;7.03;;
30157;SDS011;21203;-33.912;151.178;2023-04-06T10:21:04;11.10;;;5.80;;
30157;SDS011;21203;-33.912;151.178;2023-04-06T10:26:17;15.63;;;5.92;;
30157;SDS011;21203;-33.912;151.178;2023-04-06T10:29:06;12.53;;;5.80;;
30157;SDS011;21203;-33.912;151.178;2023-04-06T10:31:39;11.22;;;5.55;;
30157;SDS011;21203;-33.912;151.178;2023-04-06T10:34:08;8.75;;;5.28;;
30157;SDS011;21203;-33.912;151.178;2023-04-06T10:36:39;10.00;;;5.00;;
30157;SDS011;21203;-33.912;151.178;2023-04-06T10:39:10;9.85;;;4.72;;
30157;SDS011;21203;-33.912;151.178;2023-04-06T10:41:44;10.55;;;5.05;;
30157;SDS011;21203;-33.912;151.178;2023-04-06T10:44:20;14.25;;;5.95;;
30157;SDS011;21203;-33.912;151.178;2023-04-06T10:46:57;9.95;;;5.75;;
30157;SDS011;21203;-33.912;151.178;2023-04-06T10:49:30;13.20;;;5.55;;
30157;SDS011;21203;-33.912;151.178;2023-04-06T10:52:01;11.20;;;5.22;;
30157;SDS011;21203;-33.912;151.178;2023-04-06T10:54:31;11.75;;;5.10;;
30157;SDS011;21203;-33.912;151.178;2023-04-06T10:57:02;11.63;;;5.30;;
30157;SDS011;21203;-33.912;151.178;2023-04-06T10:59:33;11.68;;;5.00;;
30157;SDS011;21203;-33.912;151.178;2023-04-06T11:02:03;11.10;;;5.70;;
30157;SDS011;21203;-33.912;151.178;2023-04-06T11:04:56;10.28;;;4.92;;
30157;SDS011;21203;-33.912;151.178;2023-04-06T11:07:27;10.28;;;5.12;;
30157;SDS011;21203;-33.912;151.178;2023-04-06T11:09:58;12.25;;;5.15;;
30157;SDS011;21203;-33.912;151.178;2023-04-06T11:12:28;11.53;;;5.50;;
30157;SDS011;21203;-33.912;151.178;2023-04-06T11:15:02;11.22;;;5.45;;
30157;SDS011;21203;-33.912;151.178;2023-04-06T11:17:36;13.70;;;5.50;;
30157;SDS011;21203;-33.912;151.178;2023-04-06T11:20:09;12.20;;;5.90;;
30157;SDS011;21203;-33.912;151.178;2023-04-06T11:22:48;17.17;;;5.47;;
30157;SDS011;21203;-33.912;151.178;2023-04-06T11:25:19;11.53;;;5.72;;
30157;SDS011;21203;-33.912;151.178;2023-04-06T11:27:49;9.25;;;5.20;;
30157;SDS011;21203;-33.912;151.178;2023-04-06T11:30:20;11.03;;;4.92;;
30157;SDS011;21203;-33.912;151.178;2023-04-06T11:32:51;8.05;;;4.55;;
30157;SDS011;21203;-33.912;151.178;2023-04-06T11:35:23;12.18;;;4.87;;
30157;SDS011;21203;-33.912;151.178;2023-04-06T11:37:53;12.78;;;5.03;;
30157;SDS011;21203;-33.912;151.178;2023-04-06T11:40:23;10.80;;;4.80;;
30157;SDS011;21203;-33.912;151.178;2023-04-06T11:42:58;10.68;;;4.95;;
30157;SDS011;21203;-33.912;151.178;2023-04-06T11:45:29;11.03;;;4.72;;
30157;SDS011;21203;-33.912;151.178;2023-04-06T11:48:00;11.20;;;4.35;;
30157;SDS011;21203;-33.912;151.178;2023-04-06T11:50:34;9.53;;;4.97;;
30157;SDS011;21203;-33.912;151.178;2023-04-06T11:53:04;9.63;;;4.72;;
30157;SDS011;21203;-33.912;151.178;2023-04-06T11:55:38;10.98;;;4.67;;
30157;SDS011;21203;-33.912;151.178;2023-04-06T11:58:09;9.63;;;4.80;;
30157;SDS011;21203;-33.912;151.178;2023-04-06T12:00:40;11.15;;;5.25;;
30157;SDS011;21203;-33.912;151.178;2023-04-06T12:03:11;8.58;;;4.72;;
30157;SDS011;21203;-33.912;151.178;2023-04-06T12:05:42;10.82;;;4.60;;
30157;SDS011;21203;-33.912;151.178;2023-04-06T12:08:12;10.80;;;4.55;;
30157;SDS011;21203;-33.912;151.178;2023-04-06T12:10:42;10.25;;;4.80;;
30157;SDS011;21203;-33.912;151.178;2023-04-06T12:13:13;8.80;;;4.55;;
30157;SDS011;21203;-33.912;151.178;2023-04-06T12:15:43;11.22;;;4.58;;
30157;SDS011;21203;-33.912;151.178;2023-04-06T12:18:14;11.80;;;4.75;;
30157;SDS011;21203;-33.912;151.178;2023-04-06T12:20:44;10.90;;;4.28;;
30157;SDS011;21203;-33.912;151.178;2023-04-06T12:23:15;8.83;;;4.40;;
30157;SDS011;21203;-33.912;151.178;2023-04-06T12:25:45;10.95;;;4.85;;
30157;SDS011;21203;-33.912;151.178;2023-04-06T12:28:16;10.98;;;4.90;;
30157;SDS011;21203;-33.912;151.178;2023-04-06T12:30:47;9.88;;;5.03;;
30157;SDS011;21203;-33.912;151.178;2023-04-06T12:33:18;10.30;;;5.03;;
30157;SDS011;21203;-33.912;151.178;2023-04-06T12:35:48;13.95;;;5.25;;
30157;SDS011;21203;-33.912;151.178;2023-04-06T12:38:19;8.80;;;4.40;;
30157;SDS011;21203;-33.912;151.178;2023-04-06T12:40:49;13.15;;;4.62;;
30157;SDS011;21203;-33.912;151.178;2023-04-06T12:43:20;9.28;;;5.17;;
30157;SDS011;21203;-33.912;151.178;2023-04-06T12:45:51;10.93;;;4.58;;
30157;SDS011;21203;-33.912;151.178;2023-04-06T12:48:21;14.83;;;5.60;;
30157;SDS011;21203;-33.912;151.178;2023-04-06T12:50:55;12.78;;;5.10;;
30157;SDS011;21203;-33.912;151.178;2023-04-06T12:53:29;9.33;;;5.08;;
30157;SDS011;21203;-33.912;151.178;2023-04-06T12:56:00;8.53;;;4.65;;
30157;SDS011;21203;-33.912;151.178;2023-04-06T12:58:30;10.35;;;4.62;;
30157;SDS011;21203;-33.912;151.178;2023-04-06T13:01:05;10.82;;;5.08;;
30157;SDS011;21203;-33.912;151.178;2023-04-06T13:03:34;9.85;;;4.60;;
30157;SDS011;21203;-33.912;151.178;2023-04-06T13:06:05;12.70;;;4.62;;
30157;SDS011;21203;-33.912;151.178;2023-04-06T13:08:38;9.38;;;4.45;;
30157;SDS011;21203;-33.912;151.178;2023-04-06T13:11:09;12.18;;;5.08;;
30157;SDS011;21203;-33.912;151.178;2023-04-06T13:13:39;13.53;;;5.33;;
30157;SDS011;21203;-33.912;151.178;2023-04-06T13:16:10;10.20;;;4.37;;
30157;SDS011;21203;-33.912;151.178;2023-04-06T13:18:41;9.88;;;4.58;;
30157;SDS011;21203;-33.912;151.178;2023-04-06T13:21:13;10.13;;;5.03;;
30157;SDS011;21203;-33.912;151.178;2023-04-06T13:23:43;9.43;;;4.37;;
30157;SDS011;21203;-33.912;151.178;2023-04-06T13:26:13;11.33;;;4.75;;
30157;SDS011;21203;-33.912;151.178;2023-04-06T13:28:43;8.48;;;4.50;;
30157;SDS011;21203;-33.912;151.178;2023-04-06T13:31:14;10.30;;;4.90;;
30157;SDS011;21203;-33.912;151.178;2023-04-06T13:33:45;11.08;;;4.20;;
30157;SDS011;21203;-33.912;151.178;2023-04-06T13:36:15;8.63;;;4.35;;
30157;SDS011;21203;-33.912;151.178;2023-04-06T13:38:46;7.20;;;4.17;;
30157;SDS011;21203;-33.912;151.178;2023-04-06T13:41:20;9.00;;;4.10;;
30157;SDS011;21203;-33.912;151.178;2023-04-06T13:43:51;8.40;;;4.22;;
30157;SDS011;21203;-33.912;151.178;2023-04-06T13:49:10;10.65;;;4.15;;
30157;SDS011;21203;-33.912;151.178;2023-04-06T13:51:40;7.83;;;4.00;;
30157;SDS011;21203;-33.912;151.178;2023-04-06T13:54:10;7.72;;;3.77;;
30157;SDS011;21203;-33.912;151.178;2023-04-06T13:56:41;6.47;;;3.75;;
30157;SDS011;21203;-33.912;151.178;2023-04-06T13:59:11;8.93;;;4.03;;
30157;SDS011;21203;-33.912;151.178;2023-04-06T14:01:42;9.53;;;4.20;;
30157;SDS011;21203;-33.912;151.178;2023-04-06T14:04:12;7.28;;;3.83;;
30157;SDS011;21203;-33.912;151.178;2023-04-06T14:06:44;6.95;;;4.00;;
30157;SDS011;21203;-33.912;151.178;2023-04-06T14:09:14;10.68;;;4.08;;
30157;SDS011;21203;-33.912;151.178;2023-04-06T14:11:44;7.15;;;3.85;;
30157;SDS011;21203;-33.912;151.178;2023-04-06T14:14:15;8.78;;;3.67;;
30157;SDS011;21203;-33.912;151.178;2023-04-06T14:16:45;8.75;;;3.92;;
30157;SDS011;21203;-33.912;151.178;2023-04-06T14:19:15;9.58;;;4.47;;
30157;SDS011;21203;-33.912;151.178;2023-04-06T14:21:46;7.67;;;3.87;;
30157;SDS011;21203;-33.912;151.178;2023-04-06T14:24:17;8.43;;;4.03;;
30157;SDS011;21203;-33.912;151.178;2023-04-06T14:26:48;8.20;;;4.40;;
30157;SDS011;21203;-33.912;151.178;2023-04-06T14:29:19;7.22;;;3.62;;
30157;SDS011;21203;-33.912;151.178;2023-04-06T14:31:50;9.13;;;3.60;;
30157;SDS011;21203;-33.912;151.178;2023-04-06T14:34:20;7.55;;;3.98;;
30157;SDS011;21203;-33.912;151.178;2023-04-06T14:36:51;8.50;;;3.60;;